sensor_id;sensor_type;location;lat;lon;timestamp;temperature;humidity
75489;HTU21D;64069;46.396;48.102;2023-07-31T00:01:11;21.23;85.51
75489;HTU21D;64069;46.396;48.102;2023-07-31T00:03:43;21.29;85.63
75489;HTU21D;64069;46.396;48.102;2023-07-31T00:06:09;21.31;85.63
75489;HTU21D;64069;46.396;48.102;2023-07-31T00:08:41;21.37;85.51
75489;HTU21D;64069;46.396;48.102;2023-07-31T00:11:20;21.43;85.35
75489;HTU21D;64069;46.396;48.102;2023-07-31T00:13:46;21.43;85.29
75489;HTU21D;64069;46.396;48.102;2023-07-31T00:16:18;21.47;85.31
75489;HTU21D;64069;46.396;48.102;2023-07-31T00:18:50;21.55;85.26
75489;HTU21D;64069;46.396;48.102;2023-07-31T00:21:16;21.60;85.23
75489;HTU21D;64069;46.396;48.102;2023-07-31T00:23:48;21.64;85.19
75489;HTU21D;64069;46.396;48.102;2023-07-31T00:26:20;21.66;85.20
75489;HTU21D;64069;46.396;48.102;2023-07-31T00:28:46;21.67;85.38
75489;HTU21D;64069;46.396;48.102;2023-07-31T00:31:18;21.73;85.57
75489;HTU21D;64069;46.396;48.102;2023-07-31T00:33:50;21.78;85.67
75489;HTU21D;64069;46.396;48.102;2023-07-31T00:36:16;21.80;85.85
75489;HTU21D;64069;46.396;48.102;2023-07-31T00:38:49;21.82;86.00
75489;HTU21D;64069;46.396;48.102;2023-07-31T00:41:21;21.80;86.09
75489;HTU21D;64069;46.396;48.102;2023-07-31T00:43:48;21.76;86.35
75489;HTU21D;64069;46.396;48.102;2023-07-31T00:46:21;21.72;86.63
75489;HTU21D;64069;46.396;48.102;2023-07-31T00:48:55;21.66;86.82
75489;HTU21D;64069;46.396;48.102;2023-07-31T00:51:28;21.64;86.99
75489;HTU21D;64069;46.396;48.102;2023-07-31T00:54:02;21.62;87.10
75489;HTU21D;64069;46.396;48.102;2023-07-31T00:56:28;21.57;87.27
75489;HTU21D;64069;46.396;48.102;2023-07-31T00:59:01;21.55;87.41
75489;HTU21D;64069;46.396;48.102;2023-07-31T01:01:33;21.54;87.62
75489;HTU21D;64069;46.396;48.102;2023-07-31T01:03:59;21.49;87.93
75489;HTU21D;64069;46.396;48.102;2023-07-31T01:06:48;21.44;88.36
75489;HTU21D;64069;46.396;48.102;2023-07-31T01:09:35;21.31;88.35
75489;HTU21D;64069;46.396;48.102;2023-07-31T01:12:16;21.10;88.60
75489;HTU21D;64069;46.396;48.102;2023-07-31T01:15:06;21.02;89.22
75489;HTU21D;64069;46.396;48.102;2023-07-31T01:17:43;20.99;89.34
75489;HTU21D;64069;46.396;48.102;2023-07-31T01:20:23;20.98;89.54
75489;HTU21D;64069;46.396;48.102;2023-07-31T01:26:11;20.81;89.59
75489;HTU21D;64069;46.396;48.102;2023-07-31T01:31:29;20.66;89.60
75489;HTU21D;64069;46.396;48.102;2023-07-31T01:34:03;20.66;89.60
75489;HTU21D;64069;46.396;48.102;2023-07-31T01:36:35;20.65;89.54
75489;HTU21D;64069;46.396;48.102;2023-07-31T01:39:02;20.65;89.55
75489;HTU21D;64069;46.396;48.102;2023-07-31T01:41:36;20.61;89.60
75489;HTU21D;64069;46.396;48.102;2023-07-31T01:44:08;20.60;89.60
75489;HTU21D;64069;46.396;48.102;2023-07-31T01:46:34;20.61;89.63
75489;HTU21D;64069;46.396;48.102;2023-07-31T01:49:06;20.65;89.50
75489;HTU21D;64069;46.396;48.102;2023-07-31T01:51:38;20.70;89.39
75489;HTU21D;64069;46.396;48.102;2023-07-31T01:54:04;20.76;89.29
75489;HTU21D;64069;46.396;48.102;2023-07-31T01:56:37;20.93;89.00
75489;HTU21D;64069;46.396;48.102;2023-07-31T01:59:10;21.21;88.35
75489;HTU21D;64069;46.396;48.102;2023-07-31T02:01:36;21.40;87.81
75489;HTU21D;64069;46.396;48.102;2023-07-31T02:04:08;21.57;87.30
75489;HTU21D;64069;46.396;48.102;2023-07-31T02:06:49;21.69;86.96
75489;HTU21D;64069;46.396;48.102;2023-07-31T02:09:28;21.67;86.81
75489;HTU21D;64069;46.396;48.102;2023-07-31T02:11:54;21.73;86.92
75489;HTU21D;64069;46.396;48.102;2023-07-31T02:14:26;21.96;86.58
75489;HTU21D;64069;46.396;48.102;2023-07-31T02:16:58;22.37;85.61
75489;HTU21D;64069;46.396;48.102;2023-07-31T02:19:31;22.85;84.48
75489;HTU21D;64069;46.396;48.102;2023-07-31T02:21:57;23.30;83.33
75489;HTU21D;64069;46.396;48.102;2023-07-31T02:24:30;23.74;81.97
75489;HTU21D;64069;46.396;48.102;2023-07-31T02:26:57;24.11;80.81
75489;HTU21D;64069;46.396;48.102;2023-07-31T02:29:29;24.36;79.64
75489;HTU21D;64069;46.396;48.102;2023-07-31T02:32:02;24.65;78.40
75489;HTU21D;64069;46.396;48.102;2023-07-31T02:34:28;24.93;77.12
75489;HTU21D;64069;46.396;48.102;2023-07-31T02:37:00;25.22;75.59
75489;HTU21D;64069;46.396;48.102;2023-07-31T02:39:32;25.37;74.25
75489;HTU21D;64069;46.396;48.102;2023-07-31T02:41:59;25.35;73.35
75489;HTU21D;64069;46.396;48.102;2023-07-31T02:44:32;25.56;72.51
75489;HTU21D;64069;46.396;48.102;2023-07-31T02:47:05;25.79;71.65
75489;HTU21D;64069;46.396;48.102;2023-07-31T02:49:33;25.93;70.42
75489;HTU21D;64069;46.396;48.102;2023-07-31T02:52:06;25.87;69.54
75489;HTU21D;64069;46.396;48.102;2023-07-31T02:54:39;25.90;69.42
75489;HTU21D;64069;46.396;48.102;2023-07-31T02:57:05;26.05;68.33
75489;HTU21D;64069;46.396;48.102;2023-07-31T02:59:37;26.19;67.52
75489;HTU21D;64069;46.396;48.102;2023-07-31T03:02:11;26.35;66.75
75489;HTU21D;64069;46.396;48.102;2023-07-31T03:04:38;26.65;65.70
75489;HTU21D;64069;46.396;48.102;2023-07-31T03:07:17;27.08;64.26
75489;HTU21D;64069;46.396;48.102;2023-07-31T03:09:50;27.20;62.82
75489;HTU21D;64069;46.396;48.102;2023-07-31T03:12:28;27.13;62.06
75489;HTU21D;64069;46.396;48.102;2023-07-31T03:14:54;27.35;61.38
75489;HTU21D;64069;46.396;48.102;2023-07-31T03:17:26;27.58;59.81
75489;HTU21D;64069;46.396;48.102;2023-07-31T03:20:06;27.83;57.65
75489;HTU21D;64069;46.396;48.102;2023-07-31T03:22:38;28.01;56.90
75489;HTU21D;64069;46.396;48.102;2023-07-31T03:25:05;28.12;55.75
75489;HTU21D;64069;46.396;48.102;2023-07-31T03:27:37;28.46;54.65
75489;HTU21D;64069;46.396;48.102;2023-07-31T03:30:10;28.92;53.56
75489;HTU21D;64069;46.396;48.102;2023-07-31T03:32:36;29.23;51.46
75489;HTU21D;64069;46.396;48.102;2023-07-31T03:35:08;29.22;50.92
75489;HTU21D;64069;46.396;48.102;2023-07-31T03:37:42;29.12;50.45
75489;HTU21D;64069;46.396;48.102;2023-07-31T03:40:08;29.13;49.64
75489;HTU21D;64069;46.396;48.102;2023-07-31T03:42:34;29.26;48.71
75489;HTU21D;64069;46.396;48.102;2023-07-31T03:45:03;29.36;47.92
75489;HTU21D;64069;46.396;48.102;2023-07-31T03:47:29;29.43;47.55
75489;HTU21D;64069;46.396;48.102;2023-07-31T03:49:54;29.62;46.83
75489;HTU21D;64069;46.396;48.102;2023-07-31T03:52:21;29.82;46.10
75489;HTU21D;64069;46.396;48.102;2023-07-31T03:54:46;30.11;45.85
75489;HTU21D;64069;46.396;48.102;2023-07-31T03:57:12;30.41;44.92
75489;HTU21D;64069;46.396;48.102;2023-07-31T03:59:38;30.48;44.19
75489;HTU21D;64069;46.396;48.102;2023-07-31T04:02:04;30.63;43.67
75489;HTU21D;64069;46.396;48.102;2023-07-31T04:04:30;30.97;42.90
75489;HTU21D;64069;46.396;48.102;2023-07-31T04:06:56;31.18;41.98
75489;HTU21D;64069;46.396;48.102;2023-07-31T04:09:22;31.25;41.45
75489;HTU21D;64069;46.396;48.102;2023-07-31T04:11:48;31.43;40.98
75489;HTU21D;64069;46.396;48.102;2023-07-31T04:14:14;31.80;40.28
75489;HTU21D;64069;46.396;48.102;2023-07-31T04:16:40;32.03;39.33
75489;HTU21D;64069;46.396;48.102;2023-07-31T04:19:06;31.98;38.75
75489;HTU21D;64069;46.396;48.102;2023-07-31T04:21:32;32.03;38.57
75489;HTU21D;64069;46.396;48.102;2023-07-31T04:23:57;32.13;38.04
75489;HTU21D;64069;46.396;48.102;2023-07-31T04:26:24;32.35;37.81
75489;HTU21D;64069;46.396;48.102;2023-07-31T04:28:49;32.16;37.63
75489;HTU21D;64069;46.396;48.102;2023-07-31T04:31:15;32.05;38.00
75489;HTU21D;64069;46.396;48.102;2023-07-31T04:33:41;32.27;37.62
75489;HTU21D;64069;46.396;48.102;2023-07-31T04:36:07;32.62;36.87
75489;HTU21D;64069;46.396;48.102;2023-07-31T04:38:34;32.76;36.29
75489;HTU21D;64069;46.396;48.102;2023-07-31T04:41:00;32.87;36.18
75489;HTU21D;64069;46.396;48.102;2023-07-31T04:43:26;32.96;35.88
75489;HTU21D;64069;46.396;48.102;2023-07-31T04:45:52;32.90;35.74
75489;HTU21D;64069;46.396;48.102;2023-07-31T04:48:19;33.07;35.51
75489;HTU21D;64069;46.396;48.102;2023-07-31T04:50:45;33.32;35.04
75489;HTU21D;64069;46.396;48.102;2023-07-31T04:53:11;33.53;34.44
75489;HTU21D;64069;46.396;48.102;2023-07-31T04:55:37;33.68;34.04
75489;HTU21D;64069;46.396;48.102;2023-07-31T04:58:03;33.74;33.69
75489;HTU21D;64069;46.396;48.102;2023-07-31T05:00:29;33.88;33.51
75489;HTU21D;64069;46.396;48.102;2023-07-31T05:02:55;33.95;32.99
75489;HTU21D;64069;46.396;48.102;2023-07-31T05:05:21;34.14;32.01
75489;HTU21D;64069;46.396;48.102;2023-07-31T05:07:47;34.15;31.65
75489;HTU21D;64069;46.396;48.102;2023-07-31T05:10:13;34.24;31.32
75489;HTU21D;64069;46.396;48.102;2023-07-31T05:12:39;34.39;30.80
75489;HTU21D;64069;46.396;48.102;2023-07-31T05:15:05;34.40;30.38
75489;HTU21D;64069;46.396;48.102;2023-07-31T05:17:31;34.41;30.25
75489;HTU21D;64069;46.396;48.102;2023-07-31T05:19:57;34.52;29.59
75489;HTU21D;64069;46.396;48.102;2023-07-31T05:22:23;34.62;29.38
75489;HTU21D;64069;46.396;48.102;2023-07-31T05:24:49;34.55;29.15
75489;HTU21D;64069;46.396;48.102;2023-07-31T05:27:15;34.62;28.70
75489;HTU21D;64069;46.396;48.102;2023-07-31T05:29:44;34.67;28.38
75489;HTU21D;64069;46.396;48.102;2023-07-31T05:32:10;34.61;28.06
75489;HTU21D;64069;46.396;48.102;2023-07-31T05:34:36;34.53;27.98
75489;HTU21D;64069;46.396;48.102;2023-07-31T05:37:02;34.52;27.64
75489;HTU21D;64069;46.396;48.102;2023-07-31T05:39:28;34.46;27.48
75489;HTU21D;64069;46.396;48.102;2023-07-31T05:41:54;34.36;27.49
75489;HTU21D;64069;46.396;48.102;2023-07-31T05:44:20;34.44;27.39
75489;HTU21D;64069;46.396;48.102;2023-07-31T05:46:45;34.63;26.95
75489;HTU21D;64069;46.396;48.102;2023-07-31T05:49:11;34.75;26.86
75489;HTU21D;64069;46.396;48.102;2023-07-31T05:51:37;34.61;26.68
75489;HTU21D;64069;46.396;48.102;2023-07-31T05:54:03;34.53;26.77
75489;HTU21D;64069;46.396;48.102;2023-07-31T05:56:29;34.69;26.88
75489;HTU21D;64069;46.396;48.102;2023-07-31T05:58:55;35.09;26.33
75489;HTU21D;64069;46.396;48.102;2023-07-31T06:01:22;35.29;26.00
75489;HTU21D;64069;46.396;48.102;2023-07-31T06:03:48;35.03;26.14
75489;HTU21D;64069;46.396;48.102;2023-07-31T06:06:14;34.82;26.30
75489;HTU21D;64069;46.396;48.102;2023-07-31T06:08:40;34.70;26.31
75489;HTU21D;64069;46.396;48.102;2023-07-31T06:11:07;34.93;25.79
75489;HTU21D;64069;46.396;48.102;2023-07-31T06:13:35;34.80;25.49
75489;HTU21D;64069;46.396;48.102;2023-07-31T06:16:01;34.64;25.48
75489;HTU21D;64069;46.396;48.102;2023-07-31T06:18:32;34.68;25.60
75489;HTU21D;64069;46.396;48.102;2023-07-31T06:20:58;35.00;25.13
75489;HTU21D;64069;46.396;48.102;2023-07-31T06:23:24;34.71;25.02
75489;HTU21D;64069;46.396;48.102;2023-07-31T06:25:50;34.32;25.13
75489;HTU21D;64069;46.396;48.102;2023-07-31T06:28:16;34.30;25.27
75489;HTU21D;64069;46.396;48.102;2023-07-31T06:30:42;34.24;25.34
75489;HTU21D;64069;46.396;48.102;2023-07-31T06:33:08;34.45;25.28
75489;HTU21D;64069;46.396;48.102;2023-07-31T06:35:34;34.70;24.65
75489;HTU21D;64069;46.396;48.102;2023-07-31T06:38:01;34.54;23.98
75489;HTU21D;64069;46.396;48.102;2023-07-31T06:40:28;34.36;24.11
75489;HTU21D;64069;46.396;48.102;2023-07-31T06:42:54;34.46;23.73
75489;HTU21D;64069;46.396;48.102;2023-07-31T06:45:20;34.49;23.69
75489;HTU21D;64069;46.396;48.102;2023-07-31T06:47:47;34.46;24.04
75489;HTU21D;64069;46.396;48.102;2023-07-31T06:50:17;34.68;23.59
75489;HTU21D;64069;46.396;48.102;2023-07-31T06:52:43;34.66;23.63
75489;HTU21D;64069;46.396;48.102;2023-07-31T06:55:20;34.47;23.66
75489;HTU21D;64069;46.396;48.102;2023-07-31T06:57:49;34.35;23.65
75489;HTU21D;64069;46.396;48.102;2023-07-31T07:00:15;33.91;23.83
75489;HTU21D;64069;46.396;48.102;2023-07-31T07:02:42;33.93;23.91
75489;HTU21D;64069;46.396;48.102;2023-07-31T07:05:08;34.24;23.53
75489;HTU21D;64069;46.396;48.102;2023-07-31T07:07:35;34.48;23.46
75489;HTU21D;64069;46.396;48.102;2023-07-31T07:10:01;34.81;23.41
75489;HTU21D;64069;46.396;48.102;2023-07-31T07:12:30;34.97;23.27
75489;HTU21D;64069;46.396;48.102;2023-07-31T07:14:57;34.90;22.95
75489;HTU21D;64069;46.396;48.102;2023-07-31T07:17:27;35.01;22.88
75489;HTU21D;64069;46.396;48.102;2023-07-31T07:19:56;34.96;23.26
75489;HTU21D;64069;46.396;48.102;2023-07-31T07:22:22;35.22;23.18
75489;HTU21D;64069;46.396;48.102;2023-07-31T07:24:51;35.39;22.87
75489;HTU21D;64069;46.396;48.102;2023-07-31T07:27:17;35.51;22.69
75489;HTU21D;64069;46.396;48.102;2023-07-31T07:29:43;35.24;22.51
75489;HTU21D;64069;46.396;48.102;2023-07-31T07:32:09;35.23;22.69
75489;HTU21D;64069;46.396;48.102;2023-07-31T07:34:35;35.23;22.71
75489;HTU21D;64069;46.396;48.102;2023-07-31T07:37:02;35.40;22.50
75489;HTU21D;64069;46.396;48.102;2023-07-31T07:39:28;35.70;22.11
75489;HTU21D;64069;46.396;48.102;2023-07-31T07:42:04;35.73;21.68
75489;HTU21D;64069;46.396;48.102;2023-07-31T07:44:32;35.53;21.69
75489;HTU21D;64069;46.396;48.102;2023-07-31T07:46:58;35.39;22.30
75489;HTU21D;64069;46.396;48.102;2023-07-31T07:49:24;35.59;21.92
75489;HTU21D;64069;46.396;48.102;2023-07-31T07:51:50;35.74;21.70
75489;HTU21D;64069;46.396;48.102;2023-07-31T07:54:16;35.95;21.57
75489;HTU21D;64069;46.396;48.102;2023-07-31T07:56:48;36.07;21.47
75489;HTU21D;64069;46.396;48.102;2023-07-31T07:59:15;36.04;21.45
75489;HTU21D;64069;46.396;48.102;2023-07-31T08:01:41;36.12;21.29
75489;HTU21D;64069;46.396;48.102;2023-07-31T08:04:07;36.27;21.34
75489;HTU21D;64069;46.396;48.102;2023-07-31T08:06:33;36.41;21.09
75489;HTU21D;64069;46.396;48.102;2023-07-31T08:08:59;36.45;21.02
75489;HTU21D;64069;46.396;48.102;2023-07-31T08:11:25;36.42;20.98
75489;HTU21D;64069;46.396;48.102;2023-07-31T08:13:51;36.38;21.15
75489;HTU21D;64069;46.396;48.102;2023-07-31T08:16:16;36.45;20.84
75489;HTU21D;64069;46.396;48.102;2023-07-31T08:18:42;36.40;20.75
75489;HTU21D;64069;46.396;48.102;2023-07-31T08:21:08;36.15;21.10
75489;HTU21D;64069;46.396;48.102;2023-07-31T08:23:34;36.28;20.96
75489;HTU21D;64069;46.396;48.102;2023-07-31T08:26:00;36.31;20.46
75489;HTU21D;64069;46.396;48.102;2023-07-31T08:28:26;36.31;20.54
75489;HTU21D;64069;46.396;48.102;2023-07-31T08:30:52;36.48;20.41
75489;HTU21D;64069;46.396;48.102;2023-07-31T08:33:18;36.74;20.31
75489;HTU21D;64069;46.396;48.102;2023-07-31T08:35:44;36.99;20.17
75489;HTU21D;64069;46.396;48.102;2023-07-31T08:38:09;36.32;20.20
75489;HTU21D;64069;46.396;48.102;2023-07-31T08:40:36;35.55;20.91
75489;HTU21D;64069;46.396;48.102;2023-07-31T08:43:04;34.96;21.64
75489;HTU21D;64069;46.396;48.102;2023-07-31T08:45:30;34.46;21.83
75489;HTU21D;64069;46.396;48.102;2023-07-31T08:47:57;34.18;22.12
75489;HTU21D;64069;46.396;48.102;2023-07-31T08:50:23;33.82;22.68
75489;HTU21D;64069;46.396;48.102;2023-07-31T08:52:50;33.41;23.10
75489;HTU21D;64069;46.396;48.102;2023-07-31T08:55:17;32.97;23.51
75489;HTU21D;64069;46.396;48.102;2023-07-31T08:57:44;32.91;23.62
75489;HTU21D;64069;46.396;48.102;2023-07-31T09:00:11;33.00;23.61
75489;HTU21D;64069;46.396;48.102;2023-07-31T09:02:48;32.66;23.88
75489;HTU21D;64069;46.396;48.102;2023-07-31T09:05:21;32.47;24.24
75489;HTU21D;64069;46.396;48.102;2023-07-31T09:07:47;32.69;24.03
75489;HTU21D;64069;46.396;48.102;2023-07-31T09:10:15;32.97;23.83
75489;HTU21D;64069;46.396;48.102;2023-07-31T09:12:41;33.51;23.26
75489;HTU21D;64069;46.396;48.102;2023-07-31T09:15:08;34.20;22.67
75489;HTU21D;64069;46.396;48.102;2023-07-31T09:17:37;34.76;22.19
75489;HTU21D;64069;46.396;48.102;2023-07-31T09:20:17;35.37;21.60
75489;HTU21D;64069;46.396;48.102;2023-07-31T09:22:44;35.80;21.60
75489;HTU21D;64069;46.396;48.102;2023-07-31T09:25:24;35.94;21.05
75489;HTU21D;64069;46.396;48.102;2023-07-31T09:27:58;35.96;21.19
75489;HTU21D;64069;46.396;48.102;2023-07-31T09:30:25;36.00;21.20
75489;HTU21D;64069;46.396;48.102;2023-07-31T09:32:59;35.93;21.16
75489;HTU21D;64069;46.396;48.102;2023-07-31T09:35:30;35.52;21.11
75489;HTU21D;64069;46.396;48.102;2023-07-31T09:38:08;35.16;20.76
75489;HTU21D;64069;46.396;48.102;2023-07-31T09:40:45;35.07;20.44
75489;HTU21D;64069;46.396;48.102;2023-07-31T09:43:13;35.04;20.34
75489;HTU21D;64069;46.396;48.102;2023-07-31T09:45:43;35.10;20.86
75489;HTU21D;64069;46.396;48.102;2023-07-31T09:48:14;34.88;21.11
75489;HTU21D;64069;46.396;48.102;2023-07-31T09:50:48;34.20;21.64
75489;HTU21D;64069;46.396;48.102;2023-07-31T09:53:18;33.87;21.96
75489;HTU21D;64069;46.396;48.102;2023-07-31T09:55:44;34.15;21.85
75489;HTU21D;64069;46.396;48.102;2023-07-31T09:58:12;34.48;21.68
75489;HTU21D;64069;46.396;48.102;2023-07-31T10:00:38;34.66;21.27
75489;HTU21D;64069;46.396;48.102;2023-07-31T10:03:10;34.51;21.34
75489;HTU21D;64069;46.396;48.102;2023-07-31T10:05:37;34.23;21.57
75489;HTU21D;64069;46.396;48.102;2023-07-31T10:08:04;33.92;21.93
75489;HTU21D;64069;46.396;48.102;2023-07-31T10:10:31;34.02;22.11
75489;HTU21D;64069;46.396;48.102;2023-07-31T10:13:01;34.05;21.65
75489;HTU21D;64069;46.396;48.102;2023-07-31T10:15:28;34.04;21.63
75489;HTU21D;64069;46.396;48.102;2023-07-31T10:17:57;34.22;21.78
75489;HTU21D;64069;46.396;48.102;2023-07-31T10:20:24;34.35;21.53
75489;HTU21D;64069;46.396;48.102;2023-07-31T10:22:51;34.67;21.25
75489;HTU21D;64069;46.396;48.102;2023-07-31T10:25:18;34.88;21.02
75489;HTU21D;64069;46.396;48.102;2023-07-31T10:27:47;34.90;21.33
75489;HTU21D;64069;46.396;48.102;2023-07-31T10:30:16;34.81;21.24
75489;HTU21D;64069;46.396;48.102;2023-07-31T10:32:43;34.88;21.23
75489;HTU21D;64069;46.396;48.102;2023-07-31T10:35:11;34.88;20.90
75489;HTU21D;64069;46.396;48.102;2023-07-31T10:37:41;34.96;20.91
75489;HTU21D;64069;46.396;48.102;2023-07-31T10:40:18;35.26;20.66
75489;HTU21D;64069;46.396;48.102;2023-07-31T10:42:52;35.36;20.47
75489;HTU21D;64069;46.396;48.102;2023-07-31T10:45:30;35.35;20.41
75489;HTU21D;64069;46.396;48.102;2023-07-31T10:50:33;34.96;20.66
75489;HTU21D;64069;46.396;48.102;2023-07-31T10:53:02;34.98;20.63
75489;HTU21D;64069;46.396;48.102;2023-07-31T10:55:32;34.99;20.80
75489;HTU21D;64069;46.396;48.102;2023-07-31T10:58:09;35.01;20.82
75489;HTU21D;64069;46.396;48.102;2023-07-31T11:00:43;34.92;20.82
75489;HTU21D;64069;46.396;48.102;2023-07-31T11:03:13;35.03;20.63
75489;HTU21D;64069;46.396;48.102;2023-07-31T11:05:46;35.09;20.34
75489;HTU21D;64069;46.396;48.102;2023-07-31T11:08:20;35.00;20.31
75489;HTU21D;64069;46.396;48.102;2023-07-31T11:10:48;34.96;20.37
75489;HTU21D;64069;46.396;48.102;2023-07-31T11:13:14;35.00;20.34
75489;HTU21D;64069;46.396;48.102;2023-07-31T11:15:40;35.01;20.42
75489;HTU21D;64069;46.396;48.102;2023-07-31T11:18:06;35.10;20.40
75489;HTU21D;64069;46.396;48.102;2023-07-31T11:20:34;35.23;20.12
75489;HTU21D;64069;46.396;48.102;2023-07-31T11:23:06;35.22;20.12
75489;HTU21D;64069;46.396;48.102;2023-07-31T11:25:34;35.18;20.42
75489;HTU21D;64069;46.396;48.102;2023-07-31T11:28:04;35.25;20.40
75489;HTU21D;64069;46.396;48.102;2023-07-31T11:30:30;35.21;20.16
75489;HTU21D;64069;46.396;48.102;2023-07-31T11:32:56;35.24;20.08
75489;HTU21D;64069;46.396;48.102;2023-07-31T11:35:26;35.38;19.95
75489;HTU21D;64069;46.396;48.102;2023-07-31T11:37:53;35.50;19.91
75489;HTU21D;64069;46.396;48.102;2023-07-31T11:40:18;35.51;19.79
75489;HTU21D;64069;46.396;48.102;2023-07-31T11:42:45;35.38;19.78
75489;HTU21D;64069;46.396;48.102;2023-07-31T11:45:11;35.38;19.76
75489;HTU21D;64069;46.396;48.102;2023-07-31T11:47:37;35.38;19.79
75489;HTU21D;64069;46.396;48.102;2023-07-31T11:50:11;35.49;20.05
75489;HTU21D;64069;46.396;48.102;2023-07-31T11:52:42;35.66;19.72
75489;HTU21D;64069;46.396;48.102;2023-07-31T11:55:09;35.74;19.70
75489;HTU21D;64069;46.396;48.102;2023-07-31T11:57:37;35.81;19.54
75489;HTU21D;64069;46.396;48.102;2023-07-31T12:00:04;35.72;19.60
75489;HTU21D;64069;46.396;48.102;2023-07-31T12:02:31;35.74;19.66
75489;HTU21D;64069;46.396;48.102;2023-07-31T12:04:57;35.73;19.93
75489;HTU21D;64069;46.396;48.102;2023-07-31T12:07:24;35.48;20.07
75489;HTU21D;64069;46.396;48.102;2023-07-31T12:09:56;35.05;20.18
75489;HTU21D;64069;46.396;48.102;2023-07-31T12:12:25;34.54;20.47
75489;HTU21D;64069;46.396;48.102;2023-07-31T12:14:51;34.39;20.63
75489;HTU21D;64069;46.396;48.102;2023-07-31T12:17:19;34.41;20.91
75489;HTU21D;64069;46.396;48.102;2023-07-31T12:19:48;34.33;20.90
75489;HTU21D;64069;46.396;48.102;2023-07-31T12:22:15;34.17;21.00
75489;HTU21D;64069;46.396;48.102;2023-07-31T12:24:46;34.01;21.31
75489;HTU21D;64069;46.396;48.102;2023-07-31T12:27:13;34.06;21.49
75489;HTU21D;64069;46.396;48.102;2023-07-31T12:29:42;34.09;21.17
75489;HTU21D;64069;46.396;48.102;2023-07-31T12:32:21;34.24;20.86
75489;HTU21D;64069;46.396;48.102;2023-07-31T12:34:47;34.30;20.76
75489;HTU21D;64069;46.396;48.102;2023-07-31T12:37:13;34.42;20.95
75489;HTU21D;64069;46.396;48.102;2023-07-31T12:39:39;34.53;20.94
75489;HTU21D;64069;46.396;48.102;2023-07-31T12:42:05;34.60;20.62
75489;HTU21D;64069;46.396;48.102;2023-07-31T12:44:34;34.57;20.53
75489;HTU21D;64069;46.396;48.102;2023-07-31T12:47:00;34.61;20.46
75489;HTU21D;64069;46.396;48.102;2023-07-31T12:49:26;34.57;20.41
75489;HTU21D;64069;46.396;48.102;2023-07-31T12:51:52;34.59;20.51
75489;HTU21D;64069;46.396;48.102;2023-07-31T12:54:19;34.51;20.81
75489;HTU21D;64069;46.396;48.102;2023-07-31T12:56:45;34.34;20.78
75489;HTU21D;64069;46.396;48.102;2023-07-31T12:59:11;34.24;20.89
75489;HTU21D;64069;46.396;48.102;2023-07-31T13:01:37;34.19;20.90
75489;HTU21D;64069;46.396;48.102;2023-07-31T13:04:03;34.11;20.95
75489;HTU21D;64069;46.396;48.102;2023-07-31T13:06:29;34.06;20.94
75489;HTU21D;64069;46.396;48.102;2023-07-31T13:08:55;33.99;21.08
75489;HTU21D;64069;46.396;48.102;2023-07-31T13:11:21;33.92;21.16
75489;HTU21D;64069;46.396;48.102;2023-07-31T13:13:46;33.93;21.29
75489;HTU21D;64069;46.396;48.102;2023-07-31T13:16:12;33.86;21.52
75489;HTU21D;64069;46.396;48.102;2023-07-31T13:18:39;33.79;21.24
75489;HTU21D;64069;46.396;48.102;2023-07-31T13:21:05;33.72;21.37
75489;HTU21D;64069;46.396;48.102;2023-07-31T13:23:31;33.65;21.53
75489;HTU21D;64069;46.396;48.102;2023-07-31T13:25:57;33.58;21.48
75489;HTU21D;64069;46.396;48.102;2023-07-31T13:28:22;33.53;21.64
75489;HTU21D;64069;46.396;48.102;2023-07-31T13:30:48;33.58;21.64
75489;HTU21D;64069;46.396;48.102;2023-07-31T13:33:14;33.65;21.52
75489;HTU21D;64069;46.396;48.102;2023-07-31T13:35:44;33.67;21.51
75489;HTU21D;64069;46.396;48.102;2023-07-31T13:38:10;33.71;21.54
75489;HTU21D;64069;46.396;48.102;2023-07-31T13:40:35;33.78;21.64
75489;HTU21D;64069;46.396;48.102;2023-07-31T13:43:04;33.85;21.64
75489;HTU21D;64069;46.396;48.102;2023-07-31T13:45:30;33.83;21.74
75489;HTU21D;64069;46.396;48.102;2023-07-31T13:47:56;33.82;22.40
75489;HTU21D;64069;46.396;48.102;2023-07-31T13:50:22;33.74;22.26
75489;HTU21D;64069;46.396;48.102;2023-07-31T13:52:48;33.68;22.32
75489;HTU21D;64069;46.396;48.102;2023-07-31T13:55:14;33.66;22.48
75489;HTU21D;64069;46.396;48.102;2023-07-31T13:57:40;33.66;22.60
75489;HTU21D;64069;46.396;48.102;2023-07-31T14:00:06;33.62;22.63
75489;HTU21D;64069;46.396;48.102;2023-07-31T14:02:33;33.52;22.51
75489;HTU21D;64069;46.396;48.102;2023-07-31T14:04:59;33.49;22.45
75489;HTU21D;64069;46.396;48.102;2023-07-31T14:07:25;33.44;22.43
75489;HTU21D;64069;46.396;48.102;2023-07-31T14:09:51;33.32;22.20
75489;HTU21D;64069;46.396;48.102;2023-07-31T14:12:17;33.21;22.18
75489;HTU21D;64069;46.396;48.102;2023-07-31T14:14:43;33.19;22.45
75489;HTU21D;64069;46.396;48.102;2023-07-31T14:17:09;33.17;22.59
75489;HTU21D;64069;46.396;48.102;2023-07-31T14:19:35;33.08;22.82
75489;HTU21D;64069;46.396;48.102;2023-07-31T14:22:01;33.00;22.76
75489;HTU21D;64069;46.396;48.102;2023-07-31T14:24:27;33.01;22.59
75489;HTU21D;64069;46.396;48.102;2023-07-31T14:26:53;32.99;22.80
75489;HTU21D;64069;46.396;48.102;2023-07-31T14:29:19;32.96;22.91
75489;HTU21D;64069;46.396;48.102;2023-07-31T14:31:48;32.90;23.32
75489;HTU21D;64069;46.396;48.102;2023-07-31T14:34:14;32.85;23.00
75489;HTU21D;64069;46.396;48.102;2023-07-31T14:36:42;32.82;23.06
75489;HTU21D;64069;46.396;48.102;2023-07-31T14:39:10;32.75;24.64
75489;HTU21D;64069;46.396;48.102;2023-07-31T14:41:36;32.59;25.91
75489;HTU21D;64069;46.396;48.102;2023-07-31T14:44:01;32.50;26.96
75489;HTU21D;64069;46.396;48.102;2023-07-31T14:46:27;32.39;27.48
75489;HTU21D;64069;46.396;48.102;2023-07-31T14:48:53;32.25;27.97
75489;HTU21D;64069;46.396;48.102;2023-07-31T14:51:19;32.11;28.57
75489;HTU21D;64069;46.396;48.102;2023-07-31T14:53:45;32.00;28.97
75489;HTU21D;64069;46.396;48.102;2023-07-31T14:56:12;31.95;29.37
75489;HTU21D;64069;46.396;48.102;2023-07-31T14:58:38;31.89;29.77
75489;HTU21D;64069;46.396;48.102;2023-07-31T15:01:04;31.81;30.02
75489;HTU21D;64069;46.396;48.102;2023-07-31T15:03:30;31.71;30.33
75489;HTU21D;64069;46.396;48.102;2023-07-31T15:05:56;31.64;30.65
75489;HTU21D;64069;46.396;48.102;2023-07-31T15:08:22;31.56;31.00
75489;HTU21D;64069;46.396;48.102;2023-07-31T15:10:48;31.43;31.28
75489;HTU21D;64069;46.396;48.102;2023-07-31T15:13:14;31.30;31.63
75489;HTU21D;64069;46.396;48.102;2023-07-31T15:15:40;31.18;32.06
75489;HTU21D;64069;46.396;48.102;2023-07-31T15:18:06;31.04;32.45